createdAt,value
2022-12-11T00:00:10.411Z,21.03
2022-12-11T00:02:37.356Z,21.03
2022-12-11T00:05:04.631Z,17.93
2022-12-11T00:07:31.430Z,20.57
2022-12-11T00:09:58.521Z,20.53
2022-12-11T00:12:25.395Z,21.33
2022-12-11T00:14:52.365Z,20.90
2022-12-11T00:17:19.161Z,20.37
2022-12-11T00:19:45.950Z,22.10
2022-12-11T00:22:12.748Z,21.73
2022-12-11T00:24:39.547Z,20.50
2022-12-11T00:27:06.370Z,21.67
2022-12-11T00:29:33.169Z,21.17
2022-12-11T00:32:00.035Z,19.97
2022-12-11T00:34:26.950Z,22.53
2022-12-11T00:36:53.739Z,19.90
2022-12-11T00:39:20.490Z,19.13
2022-12-11T00:41:47.286Z,19.30
2022-12-11T00:44:14.058Z,17.50
2022-12-11T00:46:40.902Z,19.67
2022-12-11T00:49:07.740Z,18.07
2022-12-11T00:51:34.557Z,20.87
2022-12-11T00:54:01.308Z,20.80
2022-12-11T00:56:28.110Z,19.70
2022-12-11T00:58:54.954Z,19.47
2022-12-11T01:01:23.914Z,19.47
2022-12-11T01:03:53.358Z,23.67
2022-12-11T01:06:24.488Z,20.03
2022-12-11T01:09:14.555Z,21.07
2022-12-11T01:11:42.858Z,20.20
2022-12-11T01:14:11.151Z,21.43
2022-12-11T01:16:38.226Z,18.93
2022-12-11T01:19:05.293Z,21.13
2022-12-11T01:21:32.440Z,19.63
2022-12-11T01:23:59.284Z,19.60
2022-12-11T01:26:26.232Z,17.60
2022-12-11T01:28:53.250Z,20.30
2022-12-11T01:31:20.850Z,22.70
2022-12-11T01:33:47.902Z,18.67
2022-12-11T01:36:20.232Z,21.47
2022-12-11T01:38:48.871Z,19.43
2022-12-11T01:41:17.656Z,20.53
2022-12-11T01:44:07.011Z,18.93
2022-12-11T01:46:35.837Z,19.67
2022-12-11T01:49:05.885Z,19.77
2022-12-11T01:51:36.048Z,20.20
2022-12-11T01:54:09.020Z,21.47
2022-12-11T01:56:37.940Z,21.53
2022-12-11T01:59:07.887Z,18.13
2022-12-11T02:01:39.577Z,20.80
2022-12-11T02:04:09.167Z,18.70
2022-12-11T02:06:48.392Z,19.67
2022-12-11T02:09:18.770Z,18.20
2022-12-11T02:11:45.540Z,20.97
2022-12-11T02:14:30.370Z,21.83
2022-12-11T02:17:03.228Z,24.67
2022-12-11T02:19:52.716Z,21.33
2022-12-11T02:22:47.186Z,20.70
2022-12-11T02:25:36.927Z,22.23
2022-12-11T02:28:21.197Z,22.17
2022-12-11T02:30:53.986Z,20.63
2022-12-11T02:33:29.827Z,23.87
2022-12-11T02:35:57.112Z,20.27
2022-12-11T02:38:32.470Z,22.40
2022-12-11T02:41:01.225Z,23.23
2022-12-11T02:43:31.378Z,24.00
2022-12-11T02:45:59.753Z,26.13
2022-12-11T02:48:26.904Z,19.67
2022-12-11T02:50:57.597Z,19.90
2022-12-11T02:53:28.175Z,23.03
2022-12-11T02:56:22.758Z,19.83
2022-12-11T02:58:58.465Z,24.80
2022-12-11T03:01:26.756Z,21.70
2022-12-11T03:03:55.111Z,24.20
2022-12-11T03:06:26.766Z,20.87
2022-12-11T03:08:53.583Z,24.70
2022-12-11T03:11:20.369Z,23.43
2022-12-11T03:13:47.182Z,19.67
2022-12-11T03:16:37.371Z,22.07
2022-12-11T03:19:38.761Z,19.33
2022-12-11T03:22:31.444Z,19.87
2022-12-11T03:25:04.875Z,21.77
2022-12-11T03:27:45.210Z,23.50
2022-12-11T03:30:17.878Z,21.93
2022-12-11T03:32:54.851Z,20.80
2022-12-11T03:35:51.338Z,24.20
2022-12-11T03:38:34.266Z,24.30
2022-12-11T03:41:03.515Z,21.13
2022-12-11T03:43:32.078Z,20.83
2022-12-11T03:46:00.770Z,22.17
2022-12-11T03:48:35.294Z,24.43
2022-12-11T03:51:05.275Z,23.47
2022-12-11T03:53:36.783Z,23.63
2022-12-11T03:56:07.976Z,22.00
2022-12-11T03:58:34.916Z,23.83
2022-12-11T04:01:01.733Z,21.87
2022-12-11T04:03:28.625Z,21.03
2022-12-11T04:05:56.794Z,21.23
2022-12-11T04:08:23.992Z,23.57
2022-12-11T04:11:10.545Z,26.20
2022-12-11T04:13:38.101Z,23.60
2022-12-11T04:16:05.216Z,25.67
2022-12-11T04:18:51.052Z,23.43
2022-12-11T04:21:39.473Z,26.97
2022-12-11T04:24:16.348Z,26.13
2022-12-11T04:26:44.953Z,22.97
2022-12-11T04:29:11.804Z,23.17
2022-12-11T04:31:38.582Z,22.97
2022-12-11T04:34:06.105Z,23.13
2022-12-11T04:36:32.940Z,22.80
2022-12-11T04:38:59.757Z,22.83
2022-12-11T04:41:26.544Z,21.97
2022-12-11T04:43:53.357Z,23.47
2022-12-11T04:46:22.660Z,25.17
2022-12-11T04:48:56.795Z,24.10
2022-12-11T04:51:24.148Z,24.00
2022-12-11T04:53:50.986Z,24.47
2022-12-11T04:56:17.860Z,23.27
2022-12-11T04:58:45.762Z,23.40
2022-12-11T05:01:15.915Z,21.83
2022-12-11T05:03:43.371Z,21.90
2022-12-11T05:06:11.377Z,24.30
2022-12-11T05:08:40.366Z,27.07
2022-12-11T05:11:10.522Z,23.20
2022-12-11T05:13:38.315Z,24.33
2022-12-11T05:16:06.874Z,22.97
2022-12-11T05:18:34.019Z,23.43
2022-12-11T05:21:03.775Z,27.67
2022-12-11T05:23:31.122Z,29.77
2022-12-11T05:26:00.586Z,26.80
2022-12-11T05:28:30.001Z,24.97
2022-12-11T05:30:58.905Z,22.73
2022-12-11T05:33:26.725Z,26.10
2022-12-11T05:35:53.638Z,24.63
2022-12-11T05:38:21.241Z,24.17
2022-12-11T05:40:58.829Z,23.93
2022-12-11T05:43:27.164Z,25.83
2022-12-11T05:45:54.835Z,23.47
2022-12-11T05:48:22.254Z,23.13
2022-12-11T05:50:59.493Z,22.40
2022-12-11T05:53:26.859Z,23.87
2022-12-11T05:55:53.946Z,22.63
2022-12-11T05:58:21.493Z,20.03
2022-12-11T06:00:48.419Z,23.33
2022-12-11T06:03:15.987Z,21.33
2022-12-11T06:05:43.118Z,25.20
2022-12-11T06:08:10.227Z,23.63
2022-12-11T06:10:37.327Z,23.03
2022-12-11T06:13:04.655Z,23.23
2022-12-11T06:15:32.586Z,22.07
2022-12-11T06:17:59.356Z,24.20
2022-12-11T06:20:26.168Z,22.77
2022-12-11T06:22:52.931Z,26.73
2022-12-11T06:25:19.699Z,26.10
2022-12-11T06:27:46.501Z,24.73
2022-12-11T06:30:13.603Z,26.70
2022-12-11T06:32:40.363Z,26.83
2022-12-11T06:35:07.520Z,27.77
2022-12-11T06:37:36.217Z,23.70
2022-12-11T06:40:05.124Z,26.30
2022-12-11T06:42:32.188Z,25.80
2022-12-11T06:44:59.910Z,28.67
2022-12-11T06:47:27.650Z,22.97
2022-12-11T06:49:54.698Z,27.20
2022-12-11T06:52:23.030Z,25.03
2022-12-11T06:54:50.673Z,31.40
2022-12-11T06:57:18.169Z,24.57
2022-12-11T06:59:45.321Z,24.53
2022-12-11T07:02:16.670Z,24.27
2022-12-11T07:04:44.237Z,23.50
2022-12-11T07:07:11.473Z,23.87
2022-12-11T07:09:40.445Z,23.43
2022-12-11T07:12:07.701Z,20.97
2022-12-11T07:14:34.621Z,22.83
2022-12-11T07:17:01.829Z,24.27
2022-12-11T07:19:28.734Z,22.37
2022-12-11T07:21:55.561Z,22.27
2022-12-11T07:24:22.646Z,17.77
2022-12-11T07:26:49.551Z,18.97
2022-12-11T07:29:16.499Z,21.10
2022-12-11T07:31:43.380Z,19.17
2022-12-11T07:34:12.554Z,16.17
2022-12-11T07:36:39.431Z,17.87
2022-12-11T07:39:07.498Z,18.20
2022-12-11T07:41:34.674Z,15.60
2022-12-11T07:44:02.470Z,15.13
2022-12-11T07:46:31.276Z,16.73
2022-12-11T07:49:00.941Z,17.67
2022-12-11T07:51:31.341Z,16.03
2022-12-11T07:54:10.692Z,19.67
2022-12-11T07:56:37.447Z,16.00
2022-12-11T07:59:05.971Z,23.87
2022-12-11T08:01:38.101Z,17.17
2022-12-11T08:04:07.253Z,16.30
2022-12-11T08:06:36.627Z,18.23
2022-12-11T08:09:06.614Z,17.90
2022-12-11T08:11:33.550Z,18.03
2022-12-11T08:14:00.542Z,18.23
2022-12-11T08:16:27.993Z,17.77
2022-12-11T08:18:55.564Z,14.97
2022-12-11T08:21:26.488Z,16.97
2022-12-11T08:23:54.158Z,15.27
2022-12-11T08:26:29.724Z,16.43
2022-12-11T08:28:57.253Z,17.27
2022-12-11T08:31:24.625Z,17.63
2022-12-11T08:33:52.558Z,19.07
2022-12-11T08:36:21.625Z,18.33
2022-12-11T08:38:50.280Z,18.20
2022-12-11T08:41:24.095Z,14.20
2022-12-11T08:43:54.825Z,25.20
2022-12-11T08:46:27.538Z,15.87
2022-12-11T08:48:55.420Z,17.93
2022-12-11T08:51:24.195Z,15.97
2022-12-11T08:53:54.292Z,18.70
2022-12-11T08:56:23.605Z,14.50
2022-12-11T08:58:51.294Z,20.73
2022-12-11T09:01:27.695Z,16.13
2022-12-11T09:03:56.025Z,16.77
2022-12-11T09:06:24.767Z,16.33
2022-12-11T09:08:53.295Z,18.97
2022-12-11T09:11:29.511Z,21.53
2022-12-11T09:13:58.163Z,21.53
2022-12-11T09:16:27.331Z,18.70
2022-12-11T09:18:56.273Z,16.60
2022-12-11T09:21:28.891Z,15.80
2022-12-11T09:24:00.918Z,15.67
2022-12-11T09:26:30.138Z,17.50
2022-12-11T09:28:57.570Z,19.17
2022-12-11T09:31:27.449Z,16.47
2022-12-11T09:33:57.570Z,16.73
2022-12-11T09:36:24.878Z,15.90
2022-12-11T09:38:52.350Z,15.57
2022-12-11T09:41:22.257Z,18.33
2022-12-11T09:43:59.363Z,16.73
2022-12-11T09:46:32.123Z,16.63
2022-12-11T09:49:02.734Z,16.90
2022-12-11T09:51:50.980Z,16.13
2022-12-11T09:54:18.175Z,14.27
2022-12-11T09:57:16.123Z,15.37
2022-12-11T10:00:10.967Z,16.73
2022-12-11T10:03:11.079Z,17.93
2022-12-11T10:05:43.067Z,17.23
2022-12-11T10:08:17.520Z,14.77
2022-12-11T10:10:49.653Z,15.17
2022-12-11T10:13:31.518Z,14.30
2022-12-11T10:16:05.534Z,16.87
2022-12-11T10:18:33.079Z,17.80
2022-12-11T10:21:03.185Z,17.00
2022-12-11T10:23:53.078Z,18.13
2022-12-11T10:26:22.744Z,15.73
2022-12-11T10:28:49.728Z,16.70
2022-12-11T10:31:43.570Z,17.00
2022-12-11T10:34:20.739Z,14.73
2022-12-11T10:36:47.576Z,18.73
2022-12-11T10:39:20.117Z,17.60
2022-12-11T10:41:51.652Z,20.80
2022-12-11T10:44:25.848Z,18.70
2022-12-11T10:47:01.981Z,18.20
2022-12-11T10:49:31.715Z,15.30
2022-12-11T10:52:01.518Z,18.13
2022-12-11T10:54:40.500Z,18.80
2022-12-11T10:57:09.902Z,21.07
2022-12-11T10:59:50.605Z,21.17
2022-12-11T11:02:27.921Z,19.70
2022-12-11T11:04:56.425Z,18.57
2022-12-11T11:07:31.414Z,21.03
2022-12-11T11:10:11.625Z,18.87
2022-12-11T11:12:47.562Z,15.97
2022-12-11T11:15:17.764Z,18.87
2022-12-11T11:17:55.434Z,25.27
2022-12-11T11:20:26.524Z,17.63
2022-12-11T11:23:05.032Z,17.63
2022-12-11T11:25:33.457Z,18.50
2022-12-11T11:28:08.348Z,19.83
2022-12-11T11:30:41.641Z,17.97
2022-12-11T11:33:19.678Z,19.43
2022-12-11T11:35:53.861Z,17.10
2022-12-11T11:38:46.830Z,17.27
2022-12-11T11:41:29.952Z,19.87
2022-12-11T11:44:00.590Z,20.27
2022-12-11T11:46:36.680Z,20.57
2022-12-11T11:49:28.195Z,17.77
2022-12-11T11:52:21.704Z,19.77
2022-12-11T11:54:58.096Z,15.90
2022-12-11T11:57:53.263Z,19.27
2022-12-11T12:00:26.488Z,17.60
2022-12-11T12:03:03.741Z,20.77
2022-12-11T12:05:55.828Z,18.13
2022-12-11T12:08:56.130Z,17.97
2022-12-11T12:11:40.269Z,18.33
2022-12-11T12:14:50.745Z,18.33
2022-12-11T12:17:09.225Z,16.83
2022-12-11T12:19:57.719Z,17.20
2022-12-11T12:22:42.671Z,17.50
2022-12-11T12:25:31.363Z,18.67
2022-12-11T12:28:08.521Z,19.37
2022-12-11T12:30:58.540Z,22.17
2022-12-11T12:33:58.464Z,20.30
2022-12-11T12:36:45.815Z,22.30
2022-12-11T12:39:30.610Z,18.27
2022-12-11T12:42:08.533Z,19.13
2022-12-11T12:45:03.826Z,21.60
2022-12-11T12:47:35.802Z,16.23
2022-12-11T12:50:04.571Z,20.80
2022-12-11T12:52:37.244Z,16.17
2022-12-11T12:55:29.005Z,15.33
2022-12-11T12:58:06.791Z,19.20
2022-12-11T13:00:36.601Z,16.90
2022-12-11T13:03:20.229Z,17.07
2022-12-11T13:06:09.797Z,16.83
2022-12-11T13:08:48.521Z,19.10
2022-12-11T13:11:18.412Z,15.90
2022-12-11T13:14:03.833Z,19.30
2022-12-11T13:16:42.039Z,16.93
2022-12-11T13:19:24.014Z,17.73
2022-12-11T13:22:12.696Z,19.07
2022-12-11T13:25:19.270Z,23.57
2022-12-11T13:27:46.154Z,28.00
2022-12-11T13:30:15.768Z,26.07
2022-12-11T13:32:52.173Z,20.70
2022-12-11T13:35:19.030Z,21.97
2022-12-11T13:37:49.728Z,18.73
2022-12-11T13:40:25.836Z,16.40
2022-12-11T13:43:03.489Z,18.70
2022-12-11T13:45:34.337Z,18.53
2022-12-11T13:48:01.554Z,19.00
2022-12-11T13:50:34.508Z,20.87
2022-12-11T13:53:02.835Z,20.50
2022-12-11T13:55:32.024Z,18.17
2022-12-11T13:57:59.528Z,17.53
2022-12-11T14:00:32.743Z,19.87
2022-12-11T14:03:04.817Z,19.37
2022-12-11T14:05:31.891Z,17.77
2022-12-11T14:08:02.000Z,18.33
2022-12-11T14:10:32.048Z,23.53
2022-12-11T14:13:39.665Z,20.30
2022-12-11T14:16:07.276Z,20.63
2022-12-11T14:18:36.598Z,19.87
2022-12-11T14:21:05.856Z,17.30
2022-12-11T14:23:35.509Z,18.20
2022-12-11T14:26:18.795Z,17.63
2022-12-11T14:28:45.990Z,23.20
2022-12-11T14:31:35.097Z,19.77
2022-12-11T14:34:07.120Z,17.73
2022-12-11T14:36:36.090Z,16.67
2022-12-11T14:39:13.842Z,19.40
2022-12-11T14:41:40.720Z,18.57
2022-12-11T14:44:14.336Z,16.17
2022-12-11T14:46:47.447Z,20.47
2022-12-11T14:49:40.591Z,19.00
2022-12-11T14:52:17.613Z,15.40
2022-12-11T14:54:51.318Z,19.30
2022-12-11T14:57:26.048Z,17.10
2022-12-11T14:59:54.098Z,18.23
2022-12-11T15:02:32.164Z,16.57
2022-12-11T15:05:26.241Z,16.67
2022-12-11T15:08:13.008Z,17.30
2022-12-11T15:10:45.024Z,17.53
2022-12-11T15:13:13.964Z,21.30
2022-12-11T15:15:46.594Z,20.67
2022-12-11T15:18:22.525Z,19.30
2022-12-11T15:20:54.671Z,18.70
2022-12-11T15:23:21.949Z,16.77
2022-12-11T15:25:54.871Z,21.17
2022-12-11T15:28:36.437Z,20.57
2022-12-11T15:31:22.277Z,18.67
2022-12-11T15:33:49.134Z,22.77
2022-12-11T15:36:21.762Z,21.20
2022-12-11T15:38:48.573Z,21.00
2022-12-11T15:41:17.739Z,26.23
2022-12-11T15:43:45.115Z,18.57
2022-12-11T15:46:12.064Z,20.50
2022-12-11T15:48:39.139Z,23.90
2022-12-11T15:51:06.298Z,20.10
2022-12-11T15:53:33.080Z,18.53
2022-12-11T15:56:00.266Z,18.33
2022-12-11T15:58:27.510Z,17.30
2022-12-11T16:00:54.975Z,17.80
2022-12-11T16:03:23.606Z,18.63
2022-12-11T16:05:52.116Z,23.27
2022-12-11T16:08:21.869Z,19.73
2022-12-11T16:10:48.826Z,22.47
2022-12-11T16:13:15.650Z,19.17
2022-12-11T16:15:47.733Z,22.37
2022-12-11T16:18:21.586Z,22.07
2022-12-11T16:20:50.942Z,28.30
2022-12-11T16:23:18.380Z,21.30
2022-12-11T16:25:46.562Z,29.60
2022-12-11T16:28:15.137Z,39.97
2022-12-11T16:30:43.479Z,23.13
2022-12-11T16:33:13.087Z,24.03
2022-12-11T16:35:41.930Z,23.50
2022-12-11T16:38:10.111Z,23.03
2022-12-11T16:40:37.809Z,22.13
2022-12-11T16:43:05.521Z,23.80
2022-12-11T16:45:32.879Z,26.33
2022-12-11T16:48:04.025Z,24.70
2022-12-11T16:50:32.157Z,25.30
2022-12-11T16:52:59.210Z,26.37
2022-12-11T16:55:26.082Z,23.83
2022-12-11T16:57:52.866Z,21.93
2022-12-11T17:00:20.451Z,28.27
2022-12-11T17:02:47.286Z,24.53
2022-12-11T17:05:14.570Z,21.17
2022-12-11T17:07:41.651Z,23.47
2022-12-11T17:10:09.084Z,22.83
2022-12-11T17:12:36.091Z,25.13
2022-12-11T17:15:03.235Z,26.07
2022-12-11T17:17:30.036Z,22.80
2022-12-11T17:19:57.519Z,25.20
2022-12-11T17:22:25.716Z,22.90
2022-12-11T17:24:52.734Z,23.10
2022-12-11T17:27:19.510Z,24.77
2022-12-11T17:29:49.408Z,23.67
2022-12-11T17:32:17.519Z,20.40
2022-12-11T17:34:44.988Z,21.60
2022-12-11T17:37:11.900Z,28.13
2022-12-11T17:39:38.697Z,21.03
2022-12-11T17:42:06.355Z,23.33
2022-12-11T17:44:33.208Z,21.57
2022-12-11T17:47:02.655Z,21.30
2022-12-11T17:49:33.137Z,21.60
2022-12-11T17:52:00.258Z,23.03
2022-12-11T17:54:27.136Z,27.07
2022-12-11T17:56:54.077Z,28.63
2022-12-11T17:59:21.192Z,28.63
2022-12-11T18:01:48.159Z,28.57
2022-12-11T18:04:15.026Z,25.13
2022-12-11T18:06:41.825Z,26.17
2022-12-11T18:09:08.802Z,25.90
2022-12-11T18:11:35.687Z,25.00
2022-12-11T18:14:02.613Z,26.23
2022-12-11T18:16:33.289Z,28.97
2022-12-11T18:19:00.227Z,24.77
2022-12-11T18:21:33.611Z,26.57
2022-12-11T18:24:01.799Z,30.80
2022-12-11T18:26:29.078Z,26.03
2022-12-11T18:28:55.958Z,25.33
2022-12-11T18:31:23.790Z,26.10
2022-12-11T18:33:52.061Z,23.17
2022-12-11T18:36:20.324Z,23.97
2022-12-11T18:38:47.962Z,21.10
2022-12-11T18:41:16.679Z,24.30
2022-12-11T18:43:43.584Z,22.47
2022-12-11T18:46:16.154Z,25.63
2022-12-11T18:48:44.263Z,22.50
2022-12-11T18:51:18.474Z,26.17
2022-12-11T18:53:45.749Z,26.23
2022-12-11T18:56:15.573Z,23.70
2022-12-11T18:58:43.207Z,27.03
2022-12-11T19:01:34.151Z,25.73
2022-12-11T19:04:06.498Z,24.37
2022-12-11T19:06:35.920Z,22.90
2022-12-11T19:09:04.926Z,27.87
2022-12-11T19:11:33.341Z,25.67
2022-12-11T19:14:00.843Z,25.03
2022-12-11T19:16:33.815Z,26.40
2022-12-11T19:19:03.621Z,24.77
2022-12-11T19:21:30.722Z,27.97
2022-12-11T19:23:59.276Z,24.47
2022-12-11T19:26:26.340Z,25.90
2022-12-11T19:28:53.556Z,26.23
2022-12-11T19:31:23.400Z,28.27
2022-12-11T19:33:50.440Z,24.53
2022-12-11T19:36:21.474Z,25.63
2022-12-11T19:38:48.968Z,25.43
2022-12-11T19:41:21.946Z,26.17
2022-12-11T19:43:50.259Z,26.33
2022-12-11T19:46:18.008Z,28.57
2022-12-11T19:48:45.094Z,23.80
2022-12-11T19:51:17.975Z,27.63
2022-12-11T19:53:47.729Z,28.97
2022-12-11T19:56:16.678Z,29.77
2022-12-11T19:58:43.475Z,28.47
2022-12-11T20:01:17.567Z,24.03
2022-12-11T20:03:44.558Z,24.87
2022-12-11T20:06:13.648Z,24.27
2022-12-11T20:08:45.193Z,23.63
2022-12-11T20:11:17.825Z,26.90
2022-12-11T20:13:45.949Z,23.60
2022-12-11T20:16:13.375Z,23.90
2022-12-11T20:18:40.524Z,22.90
2022-12-11T20:21:09.733Z,22.17
2022-12-11T20:23:36.741Z,23.70
2022-12-11T20:26:08.689Z,25.70
2022-12-11T20:28:35.903Z,27.57
2022-12-11T20:31:07.382Z,25.43
2022-12-11T20:33:34.579Z,23.97
2022-12-11T20:36:01.577Z,26.87
2022-12-11T20:38:34.093Z,24.30
2022-12-11T20:41:01.554Z,25.53
2022-12-11T20:43:28.363Z,28.37
2022-12-11T20:45:55.137Z,28.00
2022-12-11T20:48:22.166Z,27.60
2022-12-11T20:50:49.191Z,25.07
2022-12-11T20:53:16.255Z,24.07
2022-12-11T20:55:44.020Z,28.77
2022-12-11T20:58:10.986Z,26.17
2022-12-11T21:00:39.523Z,27.17
2022-12-11T21:03:06.750Z,28.50
2022-12-11T21:05:33.739Z,24.57
2022-12-11T21:08:00.588Z,24.13
2022-12-11T21:10:27.400Z,26.80
2022-12-11T21:12:54.236Z,25.83
2022-12-11T21:15:21.008Z,26.03
2022-12-11T21:17:47.767Z,21.07
2022-12-11T21:20:14.610Z,22.50
2022-12-11T21:22:41.394Z,23.73
2022-12-11T21:25:08.469Z,25.63
2022-12-11T21:27:35.388Z,28.70
2022-12-11T21:30:02.315Z,23.73
2022-12-11T21:32:29.992Z,25.27
2022-12-11T21:34:58.596Z,26.57
2022-12-11T21:37:25.373Z,27.00
2022-12-11T21:39:56.117Z,27.40
2022-12-11T21:42:23.945Z,27.20
2022-12-11T21:47:37.471Z,28.13
2022-12-11T21:50:04.574Z,28.90
2022-12-11T21:52:31.332Z,25.67
2022-12-11T21:54:58.169Z,28.30
2022-12-11T21:57:26.715Z,30.40
2022-12-11T21:59:53.747Z,30.47
2022-12-11T22:02:20.616Z,30.00
2022-12-11T22:04:47.510Z,26.57
2022-12-11T22:07:16.211Z,33.60
2022-12-11T22:09:43.377Z,37.03
2022-12-11T22:12:21.191Z,31.83
2022-12-11T22:14:48.396Z,29.90
2022-12-11T22:17:15.435Z,32.07
2022-12-11T22:19:42.215Z,35.07
2022-12-11T22:22:09.070Z,41.77
2022-12-11T22:24:36.387Z,37.03
2022-12-11T22:27:03.236Z,32.03
2022-12-11T22:29:30.056Z,36.13
2022-12-11T22:31:57.561Z,29.57
2022-12-11T22:34:24.387Z,29.37
2022-12-11T22:36:51.498Z,24.87
2022-12-11T22:39:18.349Z,30.70
2022-12-11T22:41:45.099Z,27.53
2022-12-11T22:44:17.384Z,27.03
2022-12-11T22:46:49.624Z,30.53
2022-12-11T22:49:18.357Z,25.47
2022-12-11T22:51:45.367Z,23.80
2022-12-11T22:54:12.257Z,27.33
2022-12-11T22:56:39.131Z,27.47
2022-12-11T22:59:07.512Z,29.83
2022-12-11T23:01:34.573Z,26.40
2022-12-11T23:04:01.462Z,32.97
2022-12-11T23:06:28.280Z,27.70
2022-12-11T23:08:58.637Z,26.77
2022-12-11T23:11:29.114Z,29.70
2022-12-11T23:13:56.881Z,31.07
2022-12-11T23:16:25.196Z,30.57
2022-12-11T23:18:52.529Z,31.30
2022-12-11T23:21:20.067Z,29.43
2022-12-11T23:23:46.927Z,29.57
2022-12-11T23:26:15.450Z,31.50
2022-12-11T23:28:42.382Z,29.90
2022-12-11T23:31:09.505Z,28.50
2022-12-11T23:33:37.228Z,29.10
2022-12-11T23:36:05.590Z,32.90
2022-12-11T23:38:32.789Z,31.13
2022-12-11T23:41:01.769Z,30.43
2022-12-11T23:43:29.014Z,33.33
2022-12-11T23:45:56.527Z,29.23
2022-12-11T23:48:23.725Z,29.83
2022-12-11T23:50:50.718Z,32.17
2022-12-11T23:53:17.554Z,33.03
2022-12-11T23:55:45.387Z,29.13
2022-12-11T23:58:12.482Z,25.73
